RS-0014 weather

Progar Airstrip
Progar, Srem, Serbia

Public forecast

Using degrees Celsius for public forecast. Weather courtesy of forecast.io.

Closest aviation weather report (METAR) to Progar Airstrip

Closest report is Belgrade Nikola Tesla Airport, 8.1 nm (15.0 km) NE. Retrieved 2019/12/07 06:30 UTC (0 seconds ago):

LYBE 070630Z 16003KT 2000 BR NSC 03/01 Q1018 NOSIG

Closest aviation forecast (TAF) to Progar Airstrip

Closest forecast is Belgrade Nikola Tesla Airport, 8.1 nm (15.0 km) NE. Retrieved 2019/12/07 06:21 UTC (0 seconds ago):

TAF LYBE 070500Z 0706/0806 16004KT 3000 BR SCT040 TX07/0712Z TN02/0706Z BECMG 0709/0711 6000 NSW TEMPO 0716/0721 3000 -RA BKN008 BKN027 BECMG 0721/0723 2000 BR BKN007 BECMG 0800/0802 0600 FG BKN003